Terminal Aerodrome Forecast
Issued by NWS Knoxville/Tri Cities, TN

Home | Current Version | Previous Version | Text Only | Print | Product List | Glossary On
Versions: 1 2 3 4 5 6 7 8 9 10 11 12 13 14 15 16 17 18 19 20 21 22 23 24 25 26 27 28 29 30 31 32 33 34
603
FTUS44 KMRX 011725
TAFTYS
TAF
KTYS 011725Z 0118/0218 24011KT P6SM SCT050
     FM012000 23014KT P6SM VCTS SCT050CB BKN200
     FM020200 22006KT P6SM BKN060
     FM020900 22003KT 5SM BR FEW002 SCT015 BKN100
     FM021300 22010KT P6SM BKN035=

USA.gov is the U.S. government's official web portal to all federal, state and local government web resources and services.